createdAt,value
2019-04-30T00:02:03.029Z,11.80
2019-04-30T00:04:37.068Z,11.70
2019-04-30T00:06:59.533Z,11.80
2019-04-30T00:09:26.416Z,11.80
2019-04-30T00:11:57.892Z,11.80
2019-04-30T00:14:21.165Z,11.80
2019-04-30T00:16:47.566Z,11.80
2019-04-30T00:19:15.815Z,11.80
2019-04-30T00:21:42.117Z,11.80
2019-04-30T00:24:10.385Z,11.80
2019-04-30T00:26:39.931Z,11.80
2019-04-30T00:29:05.211Z,11.90
2019-04-30T00:31:34.839Z,11.90
2019-04-30T00:34:01.527Z,11.80
2019-04-30T00:36:33.957Z,11.90
2019-04-30T00:38:57.267Z,11.80
2019-04-30T00:41:25.537Z,11.90
2019-04-30T00:43:52.013Z,11.90
2019-04-30T00:46:25.638Z,11.90
2019-04-30T00:48:46.710Z,11.90
2019-04-30T00:51:18.182Z,11.90
2019-04-30T00:53:43.836Z,11.90
2019-04-30T00:56:11.576Z,12.00
2019-04-30T00:58:37.944Z,11.90
2019-04-30T01:01:25.297Z,11.90
2019-04-30T01:04:08.867Z,11.90
2019-04-30T01:06:35.363Z,12.00
2019-04-30T01:09:05.375Z,11.80
2019-04-30T01:11:31.928Z,11.90
2019-04-30T01:13:59.089Z,11.80
2019-04-30T01:16:30.200Z,11.80
2019-04-30T01:18:53.962Z,11.90
2019-04-30T01:21:20.452Z,11.90
2019-04-30T01:23:54.383Z,11.90
2019-04-30T01:26:18.708Z,11.90
2019-04-30T01:28:45.342Z,11.90
2019-04-30T01:31:11.806Z,11.90
2019-04-30T01:33:39.045Z,11.90
2019-04-30T01:36:11.674Z,11.90
2019-04-30T01:38:35.454Z,11.90
2019-04-30T01:41:01.897Z,11.90
2019-04-30T01:43:33.130Z,11.80
2019-04-30T01:46:01.781Z,11.90
2019-04-30T01:48:25.931Z,11.80
2019-04-30T01:50:52.375Z,11.90
2019-04-30T01:53:18.862Z,11.90
2019-04-30T01:55:49.924Z,11.90
2019-04-30T01:58:19.291Z,11.90
2019-04-30T02:00:49.305Z,11.90
2019-04-30T02:03:19.204Z,11.80
2019-04-30T02:05:45.338Z,11.90
2019-04-30T02:08:11.896Z,11.90
2019-04-30T02:10:38.317Z,12.00
2019-04-30T02:13:04.667Z,11.90
2019-04-30T02:15:31.209Z,12.00
2019-04-30T02:17:59.678Z,12.00
2019-04-30T02:20:33.547Z,11.90
2019-04-30T02:23:00.008Z,11.90
2019-04-30T02:25:26.376Z,11.90
2019-04-30T02:27:54.686Z,11.90
2019-04-30T02:30:21.144Z,11.90
2019-04-30T02:32:52.086Z,11.90
2019-04-30T02:35:19.398Z,12.00
2019-04-30T02:38:05.864Z,12.00
2019-04-30T02:40:32.218Z,11.90
2019-04-30T02:43:01.868Z,11.90
2019-04-30T02:45:30.038Z,11.90
2019-04-30T02:47:56.538Z,11.90
2019-04-30T02:50:22.900Z,11.90
2019-04-30T02:52:50.611Z,11.90
2019-04-30T02:55:24.157Z,12.00
2019-04-30T02:57:51.593Z,12.00
2019-04-30T03:00:20.792Z,12.00
2019-04-30T03:02:50.248Z,12.00
2019-04-30T03:05:16.088Z,11.90
2019-04-30T03:07:42.383Z,11.90
2019-04-30T03:10:10.140Z,11.90
2019-04-30T03:12:36.780Z,12.00
2019-04-30T03:15:04.985Z,11.90
2019-04-30T03:17:36.132Z,11.90
2019-04-30T03:20:30.955Z,11.80
2019-04-30T03:22:43.777Z,11.90
2019-04-30T03:25:10.245Z,11.80
2019-04-30T03:27:36.664Z,11.90
2019-04-30T03:30:05.442Z,11.90
2019-04-30T03:32:36.797Z,11.80
2019-04-30T03:35:03.196Z,11.70
2019-04-30T03:37:29.748Z,11.80
2019-04-30T03:39:56.265Z,11.90
2019-04-30T03:42:22.687Z,11.90
2019-04-30T03:44:49.752Z,11.80
2019-04-30T03:47:16.316Z,11.80
2019-04-30T03:49:43.867Z,11.90
2019-04-30T03:52:13.327Z,11.80
2019-04-30T03:54:40.828Z,11.80
2019-04-30T03:57:06.837Z,11.70
2019-04-30T03:59:34.296Z,11.70
2019-04-30T04:02:12.228Z,11.80
2019-04-30T04:04:49.439Z,11.70
2019-04-30T04:07:34.726Z,11.60
2019-04-30T04:10:21.711Z,11.70
2019-04-30T04:12:49.828Z,11.60
2019-04-30T04:15:16.470Z,11.60
2019-04-30T04:17:43.952Z,11.60
2019-04-30T04:20:10.906Z,11.70
2019-04-30T04:22:40.084Z,11.80
2019-04-30T04:25:05.913Z,11.70
2019-04-30T04:27:32.371Z,11.70
2019-04-30T04:30:01.018Z,11.70
2019-04-30T04:32:30.866Z,11.60
2019-04-30T04:34:56.400Z,11.60
2019-04-30T04:37:22.868Z,11.60
2019-04-30T04:39:50.554Z,11.50
2019-04-30T04:42:19.449Z,11.60
2019-04-30T04:44:45.567Z,11.60
2019-04-30T04:47:12.570Z,11.60
2019-04-30T04:49:40.306Z,11.60
2019-04-30T04:52:06.603Z,11.70
2019-04-30T04:54:33.195Z,11.60
2019-04-30T04:57:13.192Z,11.60
2019-04-30T04:59:29.696Z,11.70
2019-04-30T05:01:57.225Z,11.80
2019-04-30T05:04:23.598Z,11.70
2019-04-30T05:06:50.073Z,11.80
2019-04-30T05:09:16.652Z,11.70
2019-04-30T05:11:43.094Z,11.60
2019-04-30T05:14:10.930Z,11.60
2019-04-30T05:16:38.922Z,11.70
2019-04-30T05:19:08.573Z,11.80
2019-04-30T05:21:42.819Z,11.80
2019-04-30T05:24:04.799Z,11.80
2019-04-30T05:26:31.248Z,11.80
2019-04-30T05:28:59.112Z,11.70
2019-04-30T05:31:26.054Z,11.80
2019-04-30T05:33:53.602Z,11.90
2019-04-30T05:36:20.073Z,11.90
2019-04-30T05:38:48.754Z,11.90
2019-04-30T05:41:15.299Z,11.90
2019-04-30T05:43:41.827Z,11.90
2019-04-30T05:46:11.025Z,12.00
2019-04-30T05:48:39.523Z,12.00
2019-04-30T05:51:05.934Z,12.10
2019-04-30T05:53:32.361Z,12.20
2019-04-30T05:55:59.377Z,12.10
2019-04-30T05:58:26.022Z,12.20
2019-04-30T06:00:52.435Z,12.30
2019-04-30T06:03:27.753Z,12.40
2019-04-30T06:05:47.071Z,12.40
2019-04-30T06:08:19.108Z,12.40
2019-04-30T06:10:59.755Z,12.40
2019-04-30T06:13:28.747Z,12.40
2019-04-30T06:16:05.915Z,12.40
2019-04-30T06:18:32.519Z,12.50
2019-04-30T06:21:01.662Z,12.40
2019-04-30T06:23:34.047Z,12.50
2019-04-30T06:26:09.004Z,12.60
2019-04-30T06:28:29.266Z,12.50
2019-04-30T06:30:55.918Z,12.70
2019-04-30T06:33:22.359Z,12.70
2019-04-30T06:35:51.601Z,12.70
2019-04-30T06:38:18.533Z,12.70
2019-04-30T06:40:44.973Z,12.80
2019-04-30T06:43:11.786Z,12.80
2019-04-30T06:45:39.343Z,12.90
2019-04-30T06:48:05.764Z,12.90
2019-04-30T06:50:32.393Z,13.10
2019-04-30T06:53:01.685Z,13.20
2019-04-30T06:55:30.605Z,13.50
2019-04-30T06:57:56.427Z,13.70
2019-04-30T07:00:36.650Z,14.00
2019-04-30T07:03:03.353Z,14.30
2019-04-30T07:05:29.744Z,14.70
2019-04-30T07:08:16.159Z,15.00
2019-04-30T07:10:53.128Z,15.30
2019-04-30T07:13:12.761Z,15.60
2019-04-30T07:15:39.529Z,15.90
2019-04-30T07:18:06.042Z,16.10
2019-04-30T07:20:34.122Z,16.30
2019-04-30T07:23:03.153Z,16.60
2019-04-30T07:25:29.344Z,16.80
2019-04-30T07:27:55.794Z,16.90
2019-04-30T07:30:23.152Z,17.10
2019-04-30T07:32:49.473Z,17.20
2019-04-30T07:35:15.854Z,17.30
2019-04-30T07:37:44.470Z,17.40
2019-04-30T07:40:10.908Z,17.50
2019-04-30T07:42:44.514Z,17.60
2019-04-30T07:45:05.599Z,17.70
2019-04-30T07:47:33.143Z,17.80
2019-04-30T07:50:00.775Z,17.90
2019-04-30T07:52:33.388Z,18.10
2019-04-30T07:54:57.082Z,18.20
2019-04-30T07:57:23.460Z,18.20
2019-04-30T07:59:50.077Z,18.20
2019-04-30T08:02:16.529Z,18.20
2019-04-30T08:04:51.304Z,18.30
2019-04-30T08:07:19.886Z,18.40
2019-04-30T08:09:46.244Z,18.60
2019-04-30T08:12:22.288Z,18.70
2019-04-30T08:14:41.949Z,18.80
2019-04-30T08:17:08.834Z,18.80
2019-04-30T08:19:36.476Z,19.00
2019-04-30T08:22:02.868Z,19.00
2019-04-30T08:24:29.422Z,19.10
2019-04-30T08:26:55.847Z,19.20
2019-04-30T08:29:22.295Z,19.30
2019-04-30T08:31:49.014Z,19.30
2019-04-30T08:34:15.494Z,19.40
2019-04-30T08:36:43.667Z,19.30
2019-04-30T08:39:10.858Z,19.20
2019-04-30T08:41:39.153Z,19.00
2019-04-30T08:44:05.647Z,18.80
2019-04-30T08:46:32.066Z,18.60
2019-04-30T08:48:58.875Z,18.60
2019-04-30T08:51:25.440Z,18.60
2019-04-30T08:53:51.892Z,18.70
2019-04-30T08:56:21.954Z,18.80
2019-04-30T08:58:49.216Z,19.00
2019-04-30T09:01:16.619Z,19.10
2019-04-30T09:03:43.761Z,19.00
2019-04-30T09:06:15.324Z,19.10
2019-04-30T09:08:41.924Z,19.20
2019-04-30T09:11:22.086Z,19.30
2019-04-30T09:13:36.581Z,19.30
2019-04-30T09:16:03.138Z,19.30
2019-04-30T09:18:31.446Z,19.40
2019-04-30T09:21:06.089Z,19.40
2019-04-30T09:23:40.561Z,19.40
2019-04-30T09:25:58.763Z,19.40
2019-04-30T09:28:29.470Z,19.30
2019-04-30T09:30:59.991Z,19.50
2019-04-30T09:33:25.041Z,19.50
2019-04-30T09:35:51.474Z,19.70
2019-04-30T09:38:19.531Z,19.70
2019-04-30T09:40:47.449Z,19.70
2019-04-30T09:43:14.877Z,19.60
2019-04-30T09:45:41.200Z,19.60
2019-04-30T09:48:09.376Z,19.50
2019-04-30T09:50:36.184Z,19.50
2019-04-30T09:53:02.953Z,19.40
2019-04-30T09:55:29.488Z,19.30
2019-04-30T09:57:56.023Z,19.20
2019-04-30T10:00:22.578Z,19.10
2019-04-30T10:02:50.578Z,19.10
2019-04-30T10:05:19.423Z,18.90
2019-04-30T10:07:46.328Z,18.80
2019-04-30T10:10:14.715Z,18.80
2019-04-30T10:12:41.087Z,18.90
2019-04-30T10:15:09.128Z,18.80
2019-04-30T10:17:43.253Z,18.80
2019-04-30T10:20:10.480Z,19.00
2019-04-30T10:22:39.905Z,19.00
2019-04-30T10:25:09.260Z,19.00
2019-04-30T10:27:35.791Z,19.00
2019-04-30T10:30:04.202Z,19.00
2019-04-30T10:32:30.919Z,19.20
2019-04-30T10:34:57.276Z,19.30
2019-04-30T10:37:23.570Z,19.40
2019-04-30T10:39:49.938Z,19.40
2019-04-30T10:42:17.606Z,19.40
2019-04-30T10:44:43.976Z,19.50
2019-04-30T10:47:12.483Z,19.50
2019-04-30T10:49:39.084Z,19.60
2019-04-30T10:52:05.588Z,19.70
2019-04-30T10:54:32.054Z,19.60
2019-04-30T10:56:59.159Z,19.70
2019-04-30T10:59:25.871Z,19.70
2019-04-30T11:01:52.270Z,19.70
2019-04-30T11:04:19.962Z,19.70
2019-04-30T11:06:46.416Z,19.80
2019-04-30T11:09:14.315Z,19.90
2019-04-30T11:11:40.684Z,19.90
2019-04-30T11:14:07.007Z,20.00
2019-04-30T11:16:33.447Z,20.00
2019-04-30T11:18:59.968Z,19.90
2019-04-30T11:21:26.641Z,19.90
2019-04-30T11:23:53.277Z,19.80
2019-04-30T11:26:20.305Z,19.70
2019-04-30T11:28:47.344Z,19.70
2019-04-30T11:31:17.021Z,19.80
2019-04-30T11:33:43.926Z,19.80
2019-04-30T11:36:10.593Z,19.70
2019-04-30T11:38:38.813Z,19.80
2019-04-30T11:41:05.299Z,19.80
2019-04-30T11:43:32.275Z,19.70
2019-04-30T11:46:21.111Z,19.80
2019-04-30T11:48:49.018Z,19.70
2019-04-30T11:51:15.486Z,19.70
2019-04-30T11:53:41.985Z,19.70
2019-04-30T11:56:08.393Z,19.70
2019-04-30T11:58:34.693Z,19.70
2019-04-30T12:01:01.244Z,19.80
2019-04-30T12:03:30.106Z,19.80
2019-04-30T12:05:58.827Z,19.80
2019-04-30T12:08:29.351Z,19.90
2019-04-30T12:11:00.508Z,19.80
2019-04-30T12:13:28.642Z,19.80
2019-04-30T12:15:55.434Z,19.80
2019-04-30T12:18:21.823Z,19.90
2019-04-30T12:20:48.337Z,19.90
2019-04-30T12:23:14.818Z,19.90
2019-04-30T12:25:41.367Z,19.90
2019-04-30T12:28:09.499Z,19.80
2019-04-30T12:30:36.279Z,19.80
2019-04-30T12:33:02.915Z,19.80
2019-04-30T12:35:29.380Z,19.80
2019-04-30T12:37:55.897Z,19.80
2019-04-30T12:40:29.072Z,19.80
2019-04-30T12:42:50.783Z,19.80
2019-04-30T12:45:19.440Z,19.80
2019-04-30T12:47:48.003Z,19.80
2019-04-30T12:50:30.424Z,19.80
2019-04-30T12:53:04.770Z,19.80
2019-04-30T12:55:34.326Z,19.80
2019-04-30T12:58:02.319Z,19.80
2019-04-30T13:00:30.369Z,19.80
2019-04-30T13:02:56.815Z,19.80
2019-04-30T13:05:23.224Z,19.80
2019-04-30T13:07:50.816Z,19.80
2019-04-30T13:10:18.464Z,19.70
2019-04-30T13:12:45.879Z,19.70
2019-04-30T13:15:12.632Z,19.70
2019-04-30T13:17:39.164Z,19.70
2019-04-30T13:20:17.836Z,19.60
2019-04-30T13:22:34.576Z,19.70
2019-04-30T13:25:01.222Z,19.60
2019-04-30T13:27:29.618Z,19.60
2019-04-30T13:30:07.719Z,19.60
2019-04-30T13:32:36.134Z,19.60
2019-04-30T13:35:04.736Z,19.60
2019-04-30T13:37:36.064Z,19.60
2019-04-30T13:40:08.075Z,19.60
2019-04-30T13:42:36.463Z,19.60
2019-04-30T13:45:04.981Z,19.60
2019-04-30T13:47:33.270Z,19.70
2019-04-30T13:49:59.726Z,19.70
2019-04-30T13:52:28.870Z,19.60
2019-04-30T13:54:55.739Z,19.70
2019-04-30T13:57:22.167Z,19.60
2019-04-30T13:59:50.904Z,19.60
2019-04-30T14:02:18.613Z,19.60
2019-04-30T14:04:47.010Z,19.70
2019-04-30T14:07:18.107Z,19.80
2019-04-30T14:09:44.377Z,19.80
2019-04-30T14:12:11.729Z,19.80
2019-04-30T14:14:39.548Z,19.80
2019-04-30T14:17:06.303Z,19.80
2019-04-30T14:19:32.695Z,19.80
2019-04-30T14:21:59.126Z,19.80
2019-04-30T14:24:27.188Z,19.80
2019-04-30T14:26:53.515Z,19.90
2019-04-30T14:29:21.784Z,19.90
2019-04-30T14:31:48.835Z,19.90
2019-04-30T14:34:16.175Z,19.80
2019-04-30T14:36:42.650Z,19.80
2019-04-30T14:39:14.447Z,19.80
2019-04-30T14:41:39.865Z,19.80
2019-04-30T14:44:07.925Z,19.80
2019-04-30T14:46:37.351Z,19.80
2019-04-30T14:49:27.874Z,19.80
2019-04-30T14:51:59.568Z,19.80
2019-04-30T14:54:37.023Z,19.80
2019-04-30T14:57:05.325Z,19.80
2019-04-30T14:59:40.500Z,19.80
2019-04-30T15:02:20.644Z,19.70
2019-04-30T15:04:48.751Z,19.70
2019-04-30T15:07:16.576Z,19.70
2019-04-30T15:09:43.070Z,19.70
2019-04-30T15:12:09.741Z,19.70
2019-04-30T15:14:36.331Z,19.70
2019-04-30T15:17:03.043Z,19.80
2019-04-30T15:19:29.837Z,19.80
2019-04-30T15:21:56.263Z,19.70
2019-04-30T15:24:24.594Z,19.70
2019-04-30T15:26:57.900Z,19.60
2019-04-30T15:29:20.214Z,19.50
2019-04-30T15:31:46.786Z,19.50
2019-04-30T15:34:13.663Z,19.60
2019-04-30T15:36:40.195Z,19.60
2019-04-30T15:39:08.711Z,19.60
2019-04-30T15:41:36.016Z,19.70
2019-04-30T15:44:02.774Z,19.70
2019-04-30T15:46:29.327Z,19.70
2019-04-30T15:48:56.252Z,19.70
2019-04-30T15:51:23.755Z,19.70
2019-04-30T15:53:50.203Z,19.60
2019-04-30T15:56:16.639Z,19.60
2019-04-30T15:58:44.934Z,19.50
2019-04-30T16:01:13.140Z,19.50
2019-04-30T16:03:42.674Z,19.40
2019-04-30T16:06:10.445Z,19.40
2019-04-30T16:08:49.035Z,19.50
2019-04-30T16:11:30.798Z,19.50
2019-04-30T16:14:02.372Z,19.50
2019-04-30T16:16:30.759Z,19.50
2019-04-30T16:18:58.807Z,19.60
2019-04-30T16:21:25.553Z,19.60
2019-04-30T16:23:52.008Z,19.60
2019-04-30T16:26:18.374Z,19.60
2019-04-30T16:28:45.943Z,19.50
2019-04-30T16:31:12.492Z,19.40
2019-04-30T16:33:39.435Z,19.40
2019-04-30T16:36:06.060Z,19.40
2019-04-30T16:38:32.583Z,19.40
2019-04-30T16:40:59.096Z,19.40
2019-04-30T16:43:25.573Z,19.30
2019-04-30T16:45:51.983Z,19.20
2019-04-30T16:48:19.422Z,19.30
2019-04-30T16:50:48.918Z,19.30
2019-04-30T16:53:17.778Z,19.30
2019-04-30T16:55:44.190Z,19.30
2019-04-30T16:58:10.665Z,19.30
2019-04-30T17:00:39.176Z,19.20
2019-04-30T17:03:16.466Z,19.30
2019-04-30T17:05:53.747Z,19.30
2019-04-30T17:08:25.645Z,19.20
2019-04-30T17:10:55.073Z,19.20
2019-04-30T17:13:38.962Z,19.30
2019-04-30T17:16:11.340Z,19.30
2019-04-30T17:18:38.732Z,19.30
2019-04-30T17:21:06.109Z,19.20
2019-04-30T17:23:32.823Z,19.30
2019-04-30T17:26:01.037Z,19.30
2019-04-30T17:28:28.560Z,19.20
2019-04-30T17:30:55.222Z,19.20
2019-04-30T17:33:21.786Z,19.20
2019-04-30T17:35:49.890Z,19.20
2019-04-30T17:38:16.391Z,19.20
2019-04-30T17:40:42.930Z,19.10
2019-04-30T17:43:09.390Z,19.10
2019-04-30T17:45:35.902Z,19.10
2019-04-30T17:48:04.057Z,19.00
2019-04-30T17:50:30.520Z,19.10
2019-04-30T17:53:00.506Z,19.00
2019-04-30T17:55:29.040Z,19.00
2019-04-30T17:57:55.514Z,19.00
2019-04-30T18:00:22.547Z,19.00
2019-04-30T18:02:49.096Z,18.90
2019-04-30T18:05:15.639Z,18.90
2019-04-30T18:07:42.189Z,18.90
2019-04-30T18:10:14.961Z,18.90
2019-04-30T18:12:41.459Z,18.90
2019-04-30T18:15:14.258Z,18.90
2019-04-30T18:17:45.750Z,18.80
2019-04-30T18:20:23.216Z,18.80
2019-04-30T18:23:00.831Z,18.90
2019-04-30T18:25:40.021Z,18.80
2019-04-30T18:28:09.156Z,18.80
2019-04-30T18:30:39.100Z,18.80
2019-04-30T18:33:06.098Z,18.70
2019-04-30T18:35:33.069Z,18.70
2019-04-30T18:38:00.253Z,18.60
2019-04-30T18:40:26.758Z,18.50
2019-04-30T18:42:53.526Z,18.50
2019-04-30T18:45:20.242Z,18.40
2019-04-30T18:47:46.831Z,18.40
2019-04-30T18:50:13.398Z,18.40
2019-04-30T18:52:40.664Z,18.40
2019-04-30T18:55:09.238Z,18.40
2019-04-30T18:57:36.529Z,18.40
2019-04-30T19:00:05.420Z,18.30
2019-04-30T19:02:32.080Z,18.30
2019-04-30T19:04:59.522Z,18.30
2019-04-30T19:07:29.228Z,18.20
2019-04-30T19:10:14.387Z,18.10
2019-04-30T19:12:44.406Z,18.10
2019-04-30T19:15:48.593Z,18.10
2019-04-30T19:17:59.723Z,18.00
2019-04-30T19:20:30.757Z,18.00
2019-04-30T19:22:57.295Z,18.00
2019-04-30T19:25:23.878Z,18.00
2019-04-30T19:27:50.391Z,18.00
2019-04-30T19:30:19.132Z,17.90
2019-04-30T19:32:45.688Z,18.00
2019-04-30T19:35:12.098Z,17.90
2019-04-30T19:37:40.269Z,17.90
2019-04-30T19:40:08.937Z,17.90
2019-04-30T19:42:35.533Z,17.90
2019-04-30T19:45:09.504Z,17.90
2019-04-30T19:47:31.573Z,17.80
2019-04-30T19:49:59.463Z,17.80
2019-04-30T19:52:26.094Z,17.80
2019-04-30T19:54:52.618Z,17.80
2019-04-30T19:57:20.027Z,17.70
2019-04-30T19:59:49.086Z,17.80
2019-04-30T20:02:15.724Z,17.80
2019-04-30T20:04:42.379Z,17.80
2019-04-30T20:07:08.839Z,17.70
2019-04-30T20:09:35.462Z,17.70
2019-04-30T20:12:02.132Z,17.70
2019-04-30T20:14:29.233Z,17.70
2019-04-30T20:16:55.897Z,17.70
2019-04-30T20:19:22.488Z,17.70
2019-04-30T20:21:53.619Z,17.70
2019-04-30T20:24:19.048Z,17.70
2019-04-30T20:26:45.420Z,17.60
2019-04-30T20:29:12.927Z,17.60
2019-04-30T20:31:39.709Z,17.70
2019-04-30T20:34:16.366Z,17.70
2019-04-30T20:36:45.928Z,17.70
2019-04-30T20:39:17.383Z,17.60
2019-04-30T20:41:43.792Z,17.60
2019-04-30T20:44:10.583Z,17.50
2019-04-30T20:46:39.180Z,17.60
2019-04-30T20:49:05.331Z,17.60
2019-04-30T20:51:31.713Z,17.60
2019-04-30T20:53:59.180Z,17.60
2019-04-30T20:56:26.024Z,17.60
2019-04-30T20:58:57.388Z,17.60
2019-04-30T21:01:20.626Z,17.60
2019-04-30T21:03:47.084Z,17.60
2019-04-30T21:06:13.529Z,17.50
2019-04-30T21:08:40.147Z,17.50
2019-04-30T21:11:06.590Z,17.60
2019-04-30T21:13:33.003Z,17.60
2019-04-30T21:15:59.604Z,17.60
2019-04-30T21:18:30.517Z,17.60
2019-04-30T21:20:56.097Z,17.60
2019-04-30T21:23:22.509Z,17.60
2019-04-30T21:25:49.783Z,17.60
2019-04-30T21:28:16.169Z,17.50
2019-04-30T21:30:42.571Z,17.50
2019-04-30T21:33:13.794Z,17.40
2019-04-30T21:35:42.102Z,17.40
2019-04-30T21:38:09.411Z,17.40
2019-04-30T21:40:44.995Z,17.30
2019-04-30T21:43:11.392Z,17.30
2019-04-30T21:45:39.841Z,17.20
2019-04-30T21:48:05.999Z,17.30
2019-04-30T21:50:32.386Z,17.30
2019-04-30T21:52:59.711Z,17.30
2019-04-30T21:55:26.362Z,17.30
2019-04-30T21:57:52.864Z,17.20
2019-04-30T22:00:29.706Z,17.20
2019-04-30T22:02:59.770Z,17.10
2019-04-30T22:05:26.330Z,17.00
2019-04-30T22:07:52.768Z,17.00
2019-04-30T22:10:21.099Z,17.10
2019-04-30T22:12:48.916Z,17.00
2019-04-30T22:15:15.298Z,17.00
2019-04-30T22:17:41.646Z,17.00
2019-04-30T22:20:10.713Z,17.00
2019-04-30T22:22:39.084Z,16.90
2019-04-30T22:25:05.525Z,16.90
2019-04-30T22:27:31.941Z,16.90
2019-04-30T22:29:58.276Z,16.80
2019-04-30T22:32:24.715Z,16.80
2019-04-30T22:34:51.600Z,16.80
2019-04-30T22:37:19.542Z,16.80
2019-04-30T22:39:49.467Z,16.80
2019-04-30T22:42:20.935Z,16.80
2019-04-30T22:44:47.673Z,16.80
2019-04-30T22:47:14.198Z,16.90
2019-04-30T22:49:40.694Z,16.90
2019-04-30T22:52:07.195Z,16.80
2019-04-30T22:54:33.621Z,16.90
2019-04-30T22:57:00.099Z,16.80
2019-04-30T22:59:26.769Z,16.80
2019-04-30T23:02:13.663Z,16.90
2019-04-30T23:04:45.014Z,16.90
2019-04-30T23:07:11.488Z,16.90
2019-04-30T23:09:38.053Z,16.90
2019-04-30T23:12:04.503Z,16.80
2019-04-30T23:14:31.077Z,16.70
2019-04-30T23:16:57.533Z,16.80
2019-04-30T23:19:23.986Z,16.80
2019-04-30T23:21:50.699Z,16.70
2019-04-30T23:24:17.105Z,16.80
2019-04-30T23:26:43.573Z,16.80
2019-04-30T23:29:10.170Z,16.80
2019-04-30T23:31:36.597Z,16.80
2019-04-30T23:34:02.989Z,16.90
2019-04-30T23:36:29.448Z,16.90
2019-04-30T23:38:55.782Z,16.80
2019-04-30T23:41:22.153Z,16.80
2019-04-30T23:43:51.232Z,16.70
2019-04-30T23:46:17.769Z,16.70
2019-04-30T23:48:44.336Z,16.70
2019-04-30T23:51:10.739Z,16.70
2019-04-30T23:53:37.096Z,16.70
2019-04-30T23:56:03.514Z,16.70
2019-04-30T23:58:30.004Z,16.60
